Portada
METAR-TAF:

METAR-TAF

Aeroports :

Macau, Xina

latitud: 22-10N, longitud: 113-34E, altitud: 114 m

Observació

L'informe es va fer fa 40 minuts, a les 02:00 UTC
Vent 8 kt del Est, variant entre Est/Nord-Est i Sud-Est
Temperatura 27°C
Humitat 66%
Pressió 1013 hPa
Visibilitat 10 km o més
Escasses núvols a una alçada de 2500 ft

METAR: VMMC 230200Z 10008KT 070V130 9999 FEW025 27/20 Q1013 NOSIG

Hora: 10:40 (02:40 UTC)

Pronòstic

L'informe es va fer fa 3 hores i 40 minuts, a les 23:00 UTC
Pronòstic vàlid del 23 a les 00 UTC al 24 a les 06 UTC
Vent 8 kt del Est
Visibilitat 10 km o més
Escasses núvols a una alçada de 2500 ft
Temporalment
l' 23 a les 14 UTC al 23 a les 18 UTC
Visibilitat: 4000 m
xàfecs de pluja
Evolucionant progressivament
l' 23 a les 16 UTC al 23 a les 18 UTC
Vent 10 kt del Nord-Est

TAF: VMMC 222300Z 2300/2406 10008KT 9999 FEW025 TEMPO 2314/2318 4000 SHRA BECMG 2316/2318 04010KT

Observacions i pronòstics meteorològics de més de 4000 aeroports (METAR i TAF).

Les estacions disponibles són els punts grocs i vermells al mapa.

Posi el ratolí al punt desitjat per veure el nom de l'estació.

Feu clic per veure les observacions i els pronòstics meteorològics.

Per canviar el mapa: feu clic els botons verds amb una creu de color negre per apropar; al botó verd amb un guió per allunyar la imatge; o en les fletxes verdes per a mapes adjacents.


METAR-TAF: